ADDS METAR Data INFO
IDs: Format: Raw Decoded Include TAF

Data at: 0057 UTC 22 Oct 2017

KCLW 220055Z AUTO 07006G14KT 10SM CLR 26/19 A3012 RMK AO2
KCLW 220035Z AUTO 08007KT 10SM CLR 26/19 A3011 RMK AO2
KCLW 220015Z AUTO 08007KT 10SM SCT070 26/19 A3010 RMK AO2
KCLW 212355Z AUTO 09008KT 050V110 10SM BKN070 26/18 A3010 RMK AO2
KCLW 212335Z AUTO 08009KT 10SM OVC070 26/18 A3010 RMK AO2
KCLW 212315Z AUTO 08007KT 10SM BKN070 26/19 A3010 RMK AO2
KCLW 212255Z AUTO 08006KT 10SM CLR 27/18 A3009 RMK AO2
KCLW 212235Z AUTO 10009KT 10SM CLR 27/19 A3009 RMK AO2
KCLW 212215Z AUTO 08006KT 10SM CLR 27/19 A3009 RMK AO2
KCLW 212155Z AUTO 09007KT 050V110 10SM CLR 28/19 A3008 RMK AO2
KCLW 212135Z AUTO 09009G15KT 10SM CLR 28/19 A3008 RMK AO2
KCLW 212115Z AUTO 10008G17KT 060V130 10SM CLR 28/19 A3008 RMK AO2
KCLW 212055Z AUTO 09008G14KT 060V120 10SM CLR 28/20 A3007 RMK AO2
KCLW 212035Z AUTO 10008G14KT 10SM CLR 28/19 A3006 RMK AO2
KCLW 212015Z AUTO 10007KT 10SM SCT050 29/19 A3006 RMK AO2
KCLW 211955Z AUTO 10008KT 060V130 10SM CLR 28/18 A3006 RMK AO2
KCLW 211935Z AUTO 10008KT 070V130 10SM CLR 29/18 A3007 RMK AO2
KCLW 211915Z AUTO 11009G16KT 060V130 10SM CLR 30/18 A3007 RMK AO2
KCLW 211855Z AUTO 08010G15KT 10SM CLR 29/17 A3007 RMK AO2
KCLW 211835Z AUTO 10009G14KT 070V130 10SM CLR 30/17 A3008 RMK AO2
KCLW 211815Z AUTO 10010G14KT 10SM CLR 29/17 A3009 RMK AO2
KCLW 211755Z AUTO 10010G17KT 060V130 10SM CLR 29/17 A3009 RMK AO2
KCLW 211735Z AUTO 08008G16KT 10SM CLR 29/17 A3010 RMK AO2
KCLW 211715Z AUTO 09009G15KT 10SM CLR 28/17 A3011 RMK AO2
KCLW 211655Z AUTO 08011G15KT 10SM CLR 28/17 A3011 RMK AO2
KCLW 211635Z AUTO 10008G16KT 080V140 10SM CLR 28/18 A3013 RMK AO2
KCLW 211615Z AUTO 11010G15KT 10SM CLR 28/18 A3013 RMK AO2
KCLW 211555Z AUTO 09010G15KT 10SM CLR 27/18 A3013 RMK AO2
KCLW 211535Z AUTO 10007G16KT 10SM CLR 27/19 A3014 RMK AO2
KCLW 211515Z AUTO 10008G15KT 10SM CLR 26/19 A3014 RMK AO2
KCLW 211455Z AUTO 10012G18KT 10SM CLR 26/19 A3014 RMK AO2
KCLW 211435Z AUTO 10008G15KT 10SM CLR 26/20 A3014 RMK AO2
KCLW 211415Z AUTO 10011G15KT 10SM CLR 25/20 A3014 RMK AO2
KCLW 211355Z AUTO 09011G16KT 040V120 10SM CLR 25/20 A3014 RMK AO2
KCLW 211335Z AUTO 09007KT 10SM CLR 24/20 A3013 RMK AO2
KCLW 211315Z AUTO 08006KT 10SM CLR 23/20 A3013 RMK AO2
KCLW 211255Z AUTO 08006KT 10SM CLR 23/20 A3012 RMK AO2
KCLW 211235Z AUTO 07005KT 10SM CLR 22/20 A3011 RMK AO2
KCLW 211215Z AUTO 08004KT 10SM CLR 21/20 A3011 RMK AO2
KCLW 211155Z AUTO 06003KT 10SM CLR 21/20 A3010 RMK AO2
KCLW 211135Z AUTO 07005KT 10SM CLR 21/20 A3009 RMK AO2
KCLW 211115Z AUTO 07004KT 10SM CLR 21/20 A3008 RMK AO2
KCLW 211055Z AUTO 08004KT 10SM CLR 22/20 A3008 RMK AO2
KCLW 211035Z AUTO 08005KT 10SM CLR 22/20 A3007 RMK AO2
KCLW 211015Z AUTO 08004KT 10SM CLR 22/20 A3007 RMK AO2
KCLW 210955Z AUTO 08004KT 10SM CLR 22/20 A3006 RMK AO2
KCLW 210935Z AUTO 07007KT 10SM CLR 22/20 A3006 RMK AO2
KCLW 210915Z AUTO 08005KT 10SM CLR 22/20 A3006 RMK AO2
KCLW 210855Z AUTO 08005KT 10SM CLR 21/20 A3006 RMK AO2
KCLW 210835Z AUTO 08004KT 10SM CLR 21/20 A3006 RMK AO2
KCLW 210815Z AUTO 08004KT 10SM CLR 21/20 A3006 RMK AO2
KCLW 210755Z AUTO 08005KT 10SM CLR 21/20 A3006 RMK AO2
KCLW 210735Z AUTO 08004KT 10SM CLR 21/20 A3006 RMK AO2
KCLW 210715Z AUTO 08004KT 10SM CLR 22/20 A3007 RMK AO2
KCLW 210655Z AUTO 08004KT 10SM CLR 22/20 A3007 RMK AO2
KCLW 210635Z AUTO 07004KT 10SM CLR 22/20 A3007 RMK AO2
KCLW 210615Z AUTO 09004KT 10SM CLR 22/20 A3008 RMK AO2
KCLW 210555Z AUTO 07006KT 10SM CLR 22/19 A3008 RMK AO2
KCLW 210535Z AUTO 07005KT 10SM CLR 22/19 A3008 RMK AO2
KCLW 210515Z AUTO 07004KT 10SM CLR 22/19 A3009 RMK AO2
KCLW 210455Z AUTO 07005KT 10SM CLR 22/19 A3009 RMK AO2
KCLW 210435Z AUTO 07005KT 10SM CLR 23/19 A3009 RMK AO2
KCLW 210415Z AUTO 08006KT 10SM CLR 23/19 A3009 RMK AO2
KCLW 210355Z AUTO 08005KT 10SM CLR 23/19 A3011 RMK AO2
KCLW 210335Z AUTO 09005KT 10SM CLR 23/19 A3011 RMK AO2
KCLW 210315Z AUTO 08005KT 10SM CLR 23/18 A3011 RMK AO2
KCLW 210255Z AUTO 08005KT 10SM CLR 23/18 A3010 RMK AO2
KCLW 210235Z AUTO 08005KT 10SM CLR 24/18 A3010 RMK AO2
KCLW 210215Z AUTO 08007KT 10SM CLR 24/17 A3010 RMK AO2
KCLW 210155Z AUTO 08006KT 10SM CLR 25/17 A3009 RMK AO2
KCLW 210135Z AUTO 08006KT 10SM CLR 25/17 A3009 RMK AO2
KCLW 210115Z AUTO 07006KT 10SM CLR 25/17 A3008 RMK AO2
KCLW 210055Z AUTO 07006KT 10SM CLR 25/17 A3008 RMK AO2
KCLW 210035Z AUTO 07003KT 10SM CLR 25/17 A3007 RMK AO2
KCLW 210015Z AUTO 07006KT 10SM CLR 26/17 A3006 RMK AO2
KCLW 202355Z AUTO 06005KT 10SM CLR 26/17 A3006 RMK AO2
KCLW 202335Z AUTO 06007KT 10SM CLR 26/17 A3005 RMK AO2
KCLW 202315Z AUTO 07005KT 10SM CLR 27/17 A3005 RMK AO2
KCLW 202255Z AUTO 07006KT 10SM CLR 27/17 A3004 RMK AO2
KCLW 202235Z AUTO 07009G14KT 10SM CLR 27/17 A3004 RMK AO2
KCLW 202215Z AUTO 07009KT 10SM CLR 28/17 A3004 RMK AO2
KCLW 202155Z AUTO 07009KT 10SM CLR 28/17 A3004 RMK AO2
KCLW 202135Z AUTO 06008G15KT 10SM SCT060 28/17 A3004 RMK AO2
KCLW 202115Z AUTO 07008G14KT 10SM SCT060 28/17 A3003 RMK AO2
KCLW 202055Z AUTO 07008G15KT 10SM SCT050 BKN060 28/17 A3004 RMK AO2
KCLW 202035Z AUTO 08009KT 10SM SCT060 28/17 A3004 RMK AO2
KCLW 202015Z AUTO 07012G16KT 10SM BKN050 29/18 A3004 RMK AO2
KCLW 201955Z AUTO 08007KT 040V100 10SM BKN050 30/17 A3004 RMK AO2
KCLW 201935Z AUTO 09005G16KT 10SM SCT050 30/17 A3004 RMK AO2
KCLW 201915Z AUTO 09010G16KT 10SM BKN050 30/17 A3004 RMK AO2
KCLW 201855Z AUTO 07008G14KT 10SM SCT048 30/17 A3005 RMK AO2
KCLW 201835Z AUTO 10011G14KT 10SM SCT048 29/17 A3005 RMK AO2
KCLW 201815Z AUTO 08008G15KT 040V120 10SM CLR 29/17 A3006 RMK AO2
KCLW 201755Z AUTO 09009G17KT 10SM CLR 29/17 A3007 RMK AO2
KCLW 201735Z AUTO 06011G16KT 10SM CLR 28/17 A3008 RMK AO2
KCLW 201715Z AUTO 06011G16KT 10SM SCT039 28/18 A3009 RMK AO2
KCLW 201655Z AUTO 09009G14KT 10SM SCT037 28/18 A3009 RMK AO2
KCLW 201635Z AUTO 05010KT 10SM SCT037 28/18 A3010 RMK AO2
KCLW 201615Z AUTO 09009G15KT 10SM SCT037 28/18 A3011 RMK AO2
KCLW 201555Z AUTO 06009G16KT 10SM CLR 27/18 A3012 RMK AO2
KCLW 201535Z AUTO 07009G15KT 10SM CLR 27/18 A3012 RMK AO2
KCLW 201515Z AUTO 09007G15KT 060V120 10SM CLR 26/20 A3012 RMK AO2
KCLW 201455Z AUTO 07006KT 10SM CLR 26/20 A3013 RMK AO2
KCLW 201435Z AUTO 06009G14KT 10SM CLR 25/20 A3013 RMK AO2
KCLW 201415Z AUTO 08008G15KT 10SM CLR 25/20 A3013 RMK AO2
KCLW 201355Z AUTO 07009KT 10SM CLR 24/20 A3013 RMK AO2
KCLW 201335Z AUTO 06008KT 10SM CLR 23/21 A3013 RMK AO2
KCLW 201315Z AUTO 06005KT 10SM CLR 22/21 A3013 RMK AO2